Time,TemperatureF,DewpointF,PressureIn,WindDirection,WindDirectionDegrees,WindSpeedMPH,WindSpeedGustMPH,Humidity,HourlyPrecipIn,Conditions,Clouds,dailyrainin,SolarRadiationWatts/m^2,SoftwareType,DateUTC
2013-11-02 00:02:00,38.0,29.0,-100.00,SE,145,8.0,11.0,70,0.00,,,0.03,0.000000,,2013-11-02 06:02:00,
2013-11-02 00:43:00,37.0,28.0,-100.00,SSE,154,2.0,10.0,69,0.00,,,0.03,0.000000,,2013-11-02 06:43:00,
2013-11-02 00:52:00,37.0,28.0,-100.00,SSE,154,2.0,10.0,69,0.00,,,0.03,0.000000,,2013-11-02 06:52:00,
2013-11-02 01:02:00,37.0,28.0,-100.00,SSE,154,2.0,10.0,69,0.00,,,0.03,0.000000,,2013-11-02 07:02:00,
2013-11-02 01:42:00,36.0,28.0,-100.00,SE,133,6.0,9.0,72,0.00,,,0.03,0.000000,,2013-11-02 07:42:00,
2013-11-02 01:52:00,36.0,28.0,-100.00,SE,133,6.0,9.0,72,0.00,,,0.03,0.000000,,2013-11-02 07:52:00,
2013-11-02 02:02:00,36.0,28.0,-100.00,SE,133,6.0,9.0,72,0.00,,,0.03,0.000000,,2013-11-02 08:02:00,
2013-11-02 02:42:00,36.0,28.0,-100.00,SE,139,5.0,10.0,72,0.00,,,0.03,0.000000,,2013-11-02 08:42:00,
2013-11-02 02:52:00,36.0,28.0,-100.00,SE,139,5.0,10.0,72,0.00,,,0.03,0.000000,,2013-11-02 08:52:00,
2013-11-02 03:02:00,36.0,28.0,-100.00,SE,139,5.0,10.0,72,0.00,,,0.03,0.000000,,2013-11-02 09:02:00,
2013-11-02 03:43:00,36.0,28.0,-100.00,NW,308,3.0,7.0,72,0.00,,,0.01,0.000000,,2013-11-02 09:43:00,
2013-11-02 03:53:00,36.0,28.0,-100.00,NW,308,3.0,7.0,72,0.00,,,0.01,0.000000,,2013-11-02 09:53:00,
2013-11-02 04:03:00,36.0,28.0,-100.00,NW,308,3.0,7.0,72,0.00,,,0.01,0.000000,,2013-11-02 10:03:00,
2013-11-02 04:42:00,36.0,27.0,-100.00,West,271,5.0,10.0,70,0.00,,,0.01,0.000000,,2013-11-02 10:42:00,
2013-11-02 04:53:00,36.0,27.0,-100.00,West,271,5.0,10.0,70,0.00,,,0.01,0.000000,,2013-11-02 10:53:00,
2013-11-02 05:02:00,36.0,27.0,-100.00,West,271,5.0,10.0,70,0.00,,,0.01,0.000000,,2013-11-02 11:02:00,
2013-11-02 05:42:00,36.0,27.0,-100.00,WSW,254,4.0,10.0,69,0.00,,,0.01,0.000000,,2013-11-02 11:42:00,
2013-11-02 05:52:00,36.0,27.0,-100.00,WSW,254,4.0,10.0,69,0.00,,,0.01,0.000000,,2013-11-02 11:52:00,
2013-11-02 06:01:00,36.0,27.0,-100.00,WSW,254,4.0,10.0,69,0.00,,,0.01,0.000000,,2013-11-02 12:01:00,
2013-11-02 06:42:00,36.0,26.0,-100.00,SE,134,8.0,12.0,68,0.00,,,0.00,0.000000,,2013-11-02 12:42:00,
2013-11-02 06:52:00,36.0,26.0,-100.00,SE,134,8.0,12.0,68,0.00,,,0.00,0.000000,,2013-11-02 12:52:00,
2013-11-02 07:02:00,36.0,26.0,-100.00,SE,134,8.0,12.0,68,0.00,,,0.00,0.000000,,2013-11-02 13:02:00,
2013-11-02 07:42:00,35.0,25.0,-100.00,SE,143,7.0,15.0,66,0.00,,,0.00,0.000000,,2013-11-02 13:42:00,
2013-11-02 07:52:00,35.0,25.0,-100.00,SE,143,7.0,15.0,66,0.00,,,0.00,0.000000,,2013-11-02 13:52:00,
2013-11-02 08:01:00,35.0,25.0,-100.00,SE,143,7.0,15.0,66,0.00,,,0.00,0.000000,,2013-11-02 14:01:00,
2013-11-02 08:42:00,35.0,26.0,-100.00,ESE,111,2.0,11.0,69,0.00,,,0.00,0.000000,,2013-11-02 14:42:00,
2013-11-02 08:52:00,35.0,26.0,-100.00,ESE,111,2.0,11.0,69,0.00,,,0.00,0.000000,,2013-11-02 14:52:00,
2013-11-02 09:02:00,35.0,26.0,-100.00,ESE,111,2.0,11.0,69,0.00,,,0.00,0.000000,,2013-11-02 15:02:00,
2013-11-02 09:43:00,36.0,26.0,-100.00,SE,137,10.0,14.0,67,0.00,,,0.00,16.000000,,2013-11-02 15:43:00,
2013-11-02 09:53:00,36.0,26.0,-100.00,SE,137,10.0,14.0,67,0.00,,,0.00,16.000000,,2013-11-02 15:53:00,
2013-11-02 10:03:00,36.0,26.0,-100.00,SE,137,10.0,14.0,67,0.00,,,0.00,16.000000,,2013-11-02 16:03:00,
2013-11-02 10:43:00,40.0,26.0,-100.00,SE,141,4.0,17.0,58,0.00,,,0.00,81.000000,,2013-11-02 16:43:00,
2013-11-02 10:54:00,40.0,26.0,-100.00,SE,141,4.0,17.0,58,0.00,,,0.00,81.000000,,2013-11-02 16:54:00,
2013-11-02 11:03:00,40.0,26.0,-100.00,SE,141,4.0,17.0,58,0.00,,,0.00,81.000000,,2013-11-02 17:03:00,
2013-11-02 11:43:00,44.0,26.0,-100.00,SE,135,14.0,22.0,49,0.00,,,0.00,268.000000,,2013-11-02 17:43:00,
2013-11-02 11:53:00,44.0,26.0,-100.00,SE,135,14.0,22.0,49,0.00,,,0.00,268.000000,,2013-11-02 17:53:00,
2013-11-02 12:02:00,44.0,26.0,-100.00,SE,135,14.0,22.0,49,0.00,,,0.00,268.000000,,2013-11-02 18:02:00,
2013-11-02 12:42:00,45.0,28.0,-100.00,SE,137,11.0,21.0,51,0.00,,,0.00,228.000000,,2013-11-02 18:42:00,
2013-11-02 12:52:00,45.0,28.0,-100.00,SE,137,11.0,21.0,51,0.00,,,0.00,228.000000,,2013-11-02 18:52:00,
2013-11-02 13:01:00,45.0,28.0,-100.00,SE,137,11.0,21.0,51,0.00,,,0.00,228.000000,,2013-11-02 19:01:00,
2013-11-02 13:42:00,51.0,28.0,-100.00,ESE,106,7.0,13.0,40,0.00,,,0.00,497.000000,,2013-11-02 19:42:00,
2013-11-02 13:52:00,51.0,28.0,-100.00,ESE,106,7.0,13.0,40,0.00,,,0.00,497.000000,,2013-11-02 19:52:00,
2013-11-02 14:02:00,51.0,28.0,-100.00,ESE,106,7.0,13.0,40,0.00,,,0.00,497.000000,,2013-11-02 20:02:00,
2013-11-02 14:43:00,47.0,26.0,-100.00,West,272,9.0,18.0,44,0.00,,,0.00,361.000000,,2013-11-02 20:43:00,
2013-11-02 14:53:00,47.0,26.0,-100.00,West,272,9.0,18.0,44,0.00,,,0.00,361.000000,,2013-11-02 20:53:00,
2013-11-02 15:02:00,47.0,26.0,-100.00,West,272,9.0,18.0,44,0.00,,,0.00,361.000000,,2013-11-02 21:02:00,
2013-11-02 15:44:00,42.0,35.0,-100.00,West,277,3.0,12.0,75,0.01,,,0.01,128.000000,,2013-11-02 21:44:00,
2013-11-02 15:54:00,42.0,35.0,-100.00,West,277,3.0,12.0,75,0.01,,,0.01,128.000000,,2013-11-02 21:54:00,
2013-11-02 16:03:00,42.0,35.0,-100.00,West,277,3.0,12.0,75,0.01,,,0.01,128.000000,,2013-11-02 22:03:00,
2013-11-02 16:44:00,38.0,34.0,-100.00,WSW,245,8.0,23.0,87,0.07,,,0.08,46.000000,,2013-11-02 22:44:00,
2013-11-02 16:54:00,38.0,34.0,-100.00,WSW,245,8.0,23.0,87,0.07,,,0.08,46.000000,,2013-11-02 22:54:00,
2013-11-02 17:02:00,38.0,34.0,-100.00,WSW,245,8.0,23.0,87,0.07,,,0.08,46.000000,,2013-11-02 23:02:00,
2013-11-02 17:42:00,33.0,31.0,-100.00,West,263,18.0,39.0,91,0.05,,,0.13,22.000000,,2013-11-02 23:42:00,
2013-11-02 17:52:00,33.0,31.0,-100.00,West,263,18.0,39.0,91,0.05,,,0.13,22.000000,,2013-11-02 23:52:00,
2013-11-02 18:01:00,33.0,31.0,-100.00,West,263,18.0,39.0,91,0.05,,,0.13,22.000000,,2013-11-03 00:01:00,
2013-11-02 18:42:00,33.0,32.0,-100.00,West,264,14.0,27.0,95,0.01,,,0.14,11.000000,,2013-11-03 00:42:00,
2013-11-02 18:52:00,33.0,32.0,-100.00,West,264,14.0,27.0,95,0.01,,,0.14,11.000000,,2013-11-03 00:52:00,
2013-11-02 19:02:00,33.0,32.0,-100.00,West,264,14.0,27.0,95,0.01,,,0.14,11.000000,,2013-11-03 01:02:00,
2013-11-02 19:42:00,33.0,29.0,-100.00,SW,230,3.0,15.0,86,0.00,,,0.14,1.000000,,2013-11-03 01:42:00,
2013-11-02 19:52:00,33.0,29.0,-100.00,SW,230,3.0,15.0,86,0.00,,,0.14,1.000000,,2013-11-03 01:52:00,
2013-11-02 20:02:00,33.0,29.0,-100.00,SW,230,3.0,15.0,86,0.00,,,0.14,1.000000,,2013-11-03 02:02:00,
2013-11-02 20:43:00,33.0,28.0,-100.00,SSW,206,8.0,25.0,80,0.00,,,0.14,0.000000,,2013-11-03 02:43:00,
2013-11-02 20:52:00,33.0,28.0,-100.00,SSW,206,8.0,25.0,80,0.00,,,0.14,0.000000,,2013-11-03 02:52:00,
2013-11-02 21:02:00,33.0,28.0,-100.00,SSW,206,8.0,25.0,80,0.00,,,0.14,0.000000,,2013-11-03 03:02:00,
2013-11-02 21:45:00,32.0,23.0,-100.00,West,260,16.0,33.0,68,0.00,,,0.14,0.000000,,2013-11-03 03:45:00,
2013-11-02 21:54:00,32.0,23.0,-100.00,West,260,16.0,33.0,68,0.00,,,0.14,0.000000,,2013-11-03 03:54:00,
2013-11-02 22:02:00,-999.0,-99.9,-100.00,West,260,16.0,33.0,-999,-99.99,,,-99.99,0.000000,,2013-11-03 04:02:00,
2013-11-02 22:44:00,29.0,25.0,-100.00,WSW,244,9.0,36.0,86,0.00,,,0.14,0.000000,,2013-11-03 04:44:00,
2013-11-02 22:52:00,29.0,25.0,-100.00,WSW,244,9.0,36.0,86,0.00,,,0.14,0.000000,,2013-11-03 04:52:00,
2013-11-02 23:03:00,29.0,25.0,-100.00,WSW,244,9.0,36.0,86,0.00,,,0.14,0.000000,,2013-11-03 05:03:00,
2013-11-02 23:43:00,30.0,24.0,-100.00,WSW,254,8.0,20.0,78,0.00,,,0.14,0.000000,,2013-11-03 05:43:00,
2013-11-02 23:53:00,30.0,24.0,-100.00,WSW,254,8.0,20.0,78,0.00,,,0.14,0.000000,,2013-11-03 05:53:00,